Time;durP1;ratioP1;P1;durP2;ratioP2;P2;SDS_P1;SDS_P2;PMS_P1;PMS_P2;Temp;Humidity;BMP_temperature;BMP_pressure;BME280_temperature;BME280_humidity;BME280_pressure;Samples;Min_cycle;Max_cycle;Signal;HPM_P1;HPM_P2
2022/09/15 00:00:03;;;;;;;;;1.00;1.00;;;;;21.54;100.00;100470.81;5055303;28;45360;-72
2022/09/15 00:02:28;;;;;;;;;3.00;2.00;;;;;21.51;100.00;100470.94;5054479;28;46677;-73
2022/09/15 00:04:53;;;;;;;;;1.00;1.00;;;;;21.51;100.00;100465.56;5058266;28;45304;-72
2022/09/15 00:07:19;;;;;;;;;1.00;1.00;;;;;21.52;100.00;100477.16;5057993;28;45514;-72
2022/09/15 00:09:44;;;;;;;;;1.00;1.00;;;;;21.51;100.00;100480.78;5057909;28;45347;-72
2022/09/15 00:12:10;;;;;;;;;1.00;1.00;;;;;21.51;100.00;100472.75;5057305;28;65361;-72
2022/09/15 00:14:35;;;;;;;;;1.00;1.00;;;;;21.49;100.00;100469.25;5057916;28;45303;-72
2022/09/15 00:17:01;;;;;;;;;2.00;2.00;;;;;21.49;100.00;100478.19;5056907;28;61849;-74
2022/09/15 00:19:26;;;;;;;;;1.00;1.00;;;;;21.49;100.00;100480.88;5036544;28;45665;-72
2022/09/15 00:21:51;;;;;;;;;1.67;1.67;;;;;21.49;100.00;100474.63;5058145;28;50748;-74
2022/09/15 00:24:17;;;;;;;;;1.00;1.00;;;;;21.48;100.00;100478.25;5057149;28;60252;-72
2022/09/15 00:26:43;;;;;;;;;2.00;2.00;;;;;21.46;100.00;100472.91;5057380;28;45344;-72
2022/09/15 00:29:09;;;;;;;;;1.33;1.33;;;;;21.43;100.00;100486.50;5058265;28;45610;-73
2022/09/15 00:31:34;;;;;;;;;2.00;2.00;;;;;21.37;100.00;100474.19;5057490;28;52649;-74
2022/09/15 00:34:03;;;;;;;;;2.00;2.00;;;;;21.37;100.00;100482.22;5058000;28;45349;-72
2022/09/15 00:36:29;;;;;;;;;2.00;2.00;;;;;21.31;100.00;100485.16;5057745;28;45499;-72
2022/09/15 00:38:55;;;;;;;;;2.00;2.00;;;;;21.28;100.00;100479.00;5057651;28;45278;-72
2022/09/15 00:41:22;;;;;;;;;2.67;2.67;;;;;21.28;100.00;100487.06;5057639;28;46673;-72
2022/09/15 00:43:50;;;;;;;;;2.00;2.00;;;;;21.27;100.00;100490.69;5056926;28;45631;-72
2022/09/15 00:46:17;;;;;;;;;1.00;1.00;;;;;21.25;100.00;100489.84;5057744;28;45416;-72
2022/09/15 00:48:48;;;;;;;;;3.00;1.67;;;;;21.27;100.00;100491.53;5057836;28;45431;-71
2022/09/15 00:51:16;;;;;;;;;2.00;2.00;;;;;21.29;100.00;100494.16;5056408;28;45716;-72
2022/09/15 00:53:42;;;;;;;;;2.00;2.00;;;;;21.30;100.00;100490.56;5057363;28;45474;-73
2022/09/15 00:56:08;;;;;;;;;3.00;1.33;;;;;21.32;100.00;100499.47;5038021;28;65919;-72
2022/09/15 00:58:38;;;;;;;;;3.33;2.00;;;;;21.32;100.00;100503.03;5036100;28;45542;-72
2022/09/15 01:01:06;;;;;;;;;1.67;1.67;;;;;21.31;100.00;100503.97;5036970;28;46778;-72
2022/09/15 01:03:33;;;;;;;;;2.00;2.00;;;;;21.26;100.00;100507.72;5048715;28;45534;-73
2022/09/15 01:06:06;;;;;;;;;3.00;3.00;;;;;21.21;100.00;100515.97;5039403;28;45370;-74
2022/09/15 01:09:13;;;;;;;;;2.00;2.00;;;;;21.20;100.00;100522.25;5057181;28;45415;-72
2022/09/15 01:11:39;;;;;;;;;1.00;1.00;;;;;21.18;100.00;100532.16;5038535;28;45523;-72
2022/09/15 01:14:04;;;;;;;;;1.00;1.00;;;;;21.16;100.00;100528.69;5038427;28;45441;-72
2022/09/15 01:17:08;;;;;;;;;1.00;1.00;;;;;21.15;100.00;100529.63;5057092;28;45332;-72
2022/09/15 01:19:51;;;;;;;;;2.00;1.00;;;;;21.14;100.00;100533.22;5030010;28;45660;-73
2022/09/15 01:22:32;;;;;;;;;2.00;1.00;;;;;21.10;100.00;100527.09;5052222;28;47535;-72
2022/09/15 01:25:07;;;;;;;;;1.33;1.33;;;;;21.12;100.00;100525.22;5036007;28;45329;-72
2022/09/15 01:27:38;;;;;;;;;0.33;0.33;;;;;21.10;100.00;100527.09;5055322;28;45503;-72
2022/09/15 01:30:10;;;;;;;;;1.00;1.00;;;;;21.09;100.00;100519.06;5057131;28;45397;-74
2022/09/15 01:35:34;;;;;;;;;0.67;0.67;;;;;21.05;100.00;100514.78;5038898;28;45539;-72
2022/09/15 01:38:38;;;;;;;;;0.67;0.67;;;;;21.05;100.00;100525.53;5057004;28;45534;-72
2022/09/15 01:41:26;;;;;;;;;6.00;5.00;;;;;21.01;100.00;100529.25;5057274;28;45331;-72
2022/09/15 01:44:10;;;;;;;;;7.00;6.00;;;;;20.91;100.00;100529.56;5056752;28;46568;-72
2022/09/15 01:46:39;;;;;;;;;11.33;7.67;;;;;20.85;100.00;100532.47;5037504;28;45454;-72
2022/09/15 01:49:07;;;;;;;;;7.67;7.67;;;;;20.79;100.00;100543.44;5022135;28;45564;-72
2022/09/15 01:51:34;;;;;;;;;13.00;8.00;;;;;20.75;100.00;100541.78;5038747;28;45450;-75
2022/09/15 01:54:01;;;;;;;;;10.00;9.67;;;;;20.72;100.00;100541.91;5038318;28;46037;-74
2022/09/15 01:56:27;;;;;;;;;7.00;7.00;;;;;20.66;100.00;100534.94;5038136;28;45391;-72
2022/09/15 01:58:52;;;;;;;;;10.67;10.67;;;;;20.65;100.00;100543.91;5055968;28;45406;-72
2022/09/15 02:01:26;;;;;;;;;10.00;10.00;;;;;20.61;100.00;100538.72;5055177;28;45618;-72
2022/09/15 02:03:55;;;;;;;;;9.67;9.67;;;;;20.57;100.00;100542.47;5055344;28;46350;-72
2022/09/15 02:06:50;;;;;;;;;13.00;10.33;;;;;20.58;100.00;100546.88;5037680;28;45467;-72
2022/09/15 02:09:29;;;;;;;;;12.67;11.33;;;;;20.55;100.00;100538.94;5056573;28;45380;-72
2022/09/15 02:12:05;;;;;;;;;10.33;9.33;;;;;20.52;100.00;100539.06;5036800;28;45301;-72
2022/09/15 02:14:58;;;;;;;;;13.00;11.33;;;;;20.48;100.00;100545.44;5056020;28;47614;-72
2022/09/15 02:17:26;;;;;;;;;16.00;15.00;;;;;20.45;100.00;100543.69;5036542;28;45465;-72
2022/09/15 02:19:57;;;;;;;;;14.67;14.33;;;;;20.41;100.00;100544.75;5033547;28;45439;-74
2022/09/15 02:22:28;;;;;;;;;15.00;12.67;;;;;20.34;100.00;100537.81;5055680;28;45348;-72
2022/09/15 02:25:27;;;;;;;;;14.33;12.67;;;;;20.32;100.00;100543.25;5037405;28;46565;-72
2022/09/15 02:27:55;;;;;;;;;10.33;10.33;;;;;20.27;100.00;100537.16;5038705;28;45593;-74
2022/09/15 02:30:21;;;;;;;;;11.33;11.33;;;;;20.25;100.00;100533.66;5038778;28;45309;-72
2022/09/15 02:32:52;;;;;;;;;13.67;13.00;;;;;20.26;100.00;100534.53;5037067;28;45758;-75
2022/09/15 02:35:18;;;;;;;;;9.00;9.00;;;;;20.25;100.00;100538.16;5055253;28;47454;-73
2022/09/15 02:37:45;;;;;;;;;10.00;10.00;;;;;20.21;100.00;100528.47;5055634;28;45589;-72
2022/09/15 02:40:10;;;;;;;;;12.00;10.00;;;;;20.19;100.00;100541.00;5038262;28;46202;-72
2022/09/15 02:42:35;;;;;;;;;13.33;10.33;;;;;20.18;100.00;100533.91;5055546;28;45549;-72
2022/09/15 02:45:01;;;;;;;;;11.67;10.33;;;;;20.14;100.00;100539.38;5055773;28;46638;-71
2022/09/15 02:47:27;;;;;;;;;8.00;8.00;;;;;20.14;100.00;100534.03;5055230;28;45490;-72
2022/09/15 02:49:53;;;;;;;;;12.00;10.33;;;;;20.16;100.00;100542.00;5055031;28;62563;-72
2022/09/15 02:52:19;;;;;;;;;9.67;8.33;;;;;20.14;100.00;100534.03;5055854;28;45506;-72
2022/09/15 02:54:45;;;;;;;;;9.00;9.00;;;;;20.10;100.00;100529.69;5055684;28;46392;-72
2022/09/15 02:57:13;;;;;;;;;9.33;7.00;;;;;20.08;100.00;100530.66;5055358;28;45299;-73
2022/09/15 03:02:24;;;;;;;;;12.33;10.00;;;;;19.97;100.00;100531.00;5050204;28;45344;-72
2022/09/15 03:04:49;;;;;;;;;8.67;8.67;;;;;19.91;100.00;100536.56;5054865;28;45668;-73
2022/09/15 03:07:16;;;;;;;;;9.33;8.00;;;;;19.89;100.00;100544.66;5055119;28;45572;-72
2022/09/15 03:09:41;;;;;;;;;10.33;10.33;;;;;19.85;100.00;100544.81;5055583;28;45311;-72
2022/09/15 03:12:08;;;;;;;;;9.67;8.00;;;;;19.83;100.00;100550.22;5055022;28;45488;-72
2022/09/15 03:14:34;;;;;;;;;12.00;11.00;;;;;19.75;100.00;100549.56;5055287;28;47492;-74
2022/09/15 03:16:59;;;;;;;;;9.33;9.33;;;;;19.69;100.00;100540.84;5055691;28;45273;-73
2022/09/15 03:19:25;;;;;;;;;10.67;9.00;;;;;19.60;100.00;100540.22;5038426;28;45515;-72
2022/09/15 03:21:51;;;;;;;;;14.00;12.00;;;;;19.56;100.00;100543.00;5034936;28;45400;-75
2022/09/15 03:24:18;;;;;;;;;10.00;10.00;;;;;19.50;100.00;100546.75;5034743;28;46315;-72
2022/09/15 03:26:44;;;;;;;;;15.67;10.33;;;;;19.42;100.00;100543.41;5033252;28;45409;-72
2022/09/15 03:29:10;;;;;;;;;7.33;7.33;;;;;19.37;100.00;100545.34;5035944;28;45519;-72
2022/09/15 03:31:35;;;;;;;;;8.00;8.00;;;;;19.30;100.00;100542.00;5034848;28;62001;-74
2022/09/15 03:34:00;;;;;;;;;8.00;8.00;;;;;19.25;100.00;100535.91;5034953;28;67457;-72
2022/09/15 03:36:26;;;;;;;;;7.00;7.00;;;;;19.15;100.00;100534.41;5034529;28;51652;-72
2022/09/15 03:38:51;;;;;;;;;11.67;8.67;;;;;19.10;100.00;100547.91;5036473;28;62096;-72
2022/09/15 03:41:17;;;;;;;;;9.33;9.33;;;;;19.05;100.00;100551.66;5039148;28;45325;-73
2022/09/15 03:43:43;;;;;;;;;10.67;10.67;;;;;18.99;100.00;100550.03;5038041;28;46813;-72
2022/09/15 03:46:10;;;;;;;;;15.00;10.00;;;;;18.94;100.00;100551.06;5038072;28;45444;-72
2022/09/15 03:48:36;;;;;;;;;12.00;12.00;;;;;18.89;100.00;100550.31;5020675;28;45511;-72
2022/09/15 03:51:03;;;;;;;;;12.67;11.00;;;;;18.80;100.00;100538.97;5037902;28;45441;-74
2022/09/15 03:53:33;;;;;;;;;12.00;12.00;;;;;18.81;100.00;100551.41;5037966;28;46637;-72
2022/09/15 03:56:16;;;;;;;;;15.33;15.33;;;;;18.77;100.00;100556.91;5038411;28;45410;-73
2022/09/15 03:58:42;;;;;;;;;17.33;16.33;;;;;18.72;100.00;100554.34;5038794;28;45278;-72
2022/09/15 04:01:07;;;;;;;;;14.67;14.00;;;;;18.66;100.00;100550.94;5036331;28;62560;-73
2022/09/15 04:03:32;;;;;;;;;17.00;16.33;;;;;18.65;100.00;100560.75;5032013;28;47306;-74
2022/09/15 04:05:58;;;;;;;;;16.33;16.33;;;;;18.60;100.00;100554.66;5038157;28;50836;-72
2022/09/15 04:08:23;;;;;;;;;14.00;14.00;;;;;18.58;100.00;100564.47;5037598;28;45754;-72
2022/09/15 04:10:48;;;;;;;;;16.00;15.00;;;;;18.53;100.00;100566.41;5038043;28;47111;-73
2022/09/15 04:13:14;;;;;;;;;18.00;17.00;;;;;18.50;100.00;100562.03;5037263;28;56551;-74
2022/09/15 04:15:39;;;;;;;;;19.33;19.33;;;;;18.47;100.00;100577.25;5037236;28;64239;-72
2022/09/15 04:18:05;;;;;;;;;16.00;16.00;;;;;18.46;100.00;100567.47;5036500;28;61022;-73
2022/09/15 04:20:30;;;;;;;;;21.00;20.33;;;;;18.49;100.00;100575.44;5037475;28;45465;-72
2022/09/15 04:22:57;;;;;;;;;20.00;18.00;;;;;18.49;100.00;100575.44;5018596;28;46654;-72
2022/09/15 04:25:24;;;;;;;;;18.67;18.00;;;;;18.48;100.00;100573.66;5037172;28;45402;-72
2022/09/15 04:27:49;;;;;;;;;22.00;20.33;;;;;18.50;100.00;100575.38;5033317;28;45320;-72
2022/09/15 04:30:14;;;;;;;;;15.00;14.00;;;;;18.50;100.00;100583.41;5036895;28;61524;-72
2022/09/15 04:32:40;;;;;;;;;19.00;18.67;;;;;18.47;100.00;100577.25;5037113;28;59901;-72
2022/09/15 04:35:05;;;;;;;;;18.67;18.33;;;;;18.45;100.00;100585.31;5037603;28;45359;-72
2022/09/15 04:37:32;;;;;;;;;18.33;18.00;;;;;18.48;100.00;100581.69;5037564;28;45500;-74
2022/09/15 04:39:57;;;;;;;;;21.33;19.00;;;;;18.49;100.00;100586.13;5037889;28;45557;-71
2022/09/15 04:42:23;;;;;;;;;18.33;18.33;;;;;18.50;100.00;100590.56;5037227;28;45745;-72
2022/09/15 04:44:48;;;;;;;;;19.67;19.33;;;;;18.49;100.00;100595.03;5037407;28;45483;-72
2022/09/15 04:47:13;;;;;;;;;17.67;17.67;;;;;18.44;100.00;100582.69;5035572;28;55466;-75
2022/09/15 04:49:39;;;;;;;;;19.67;18.67;;;;;18.41;100.00;100594.31;5035377;28;45544;-74
2022/09/15 04:52:04;;;;;;;;;18.33;18.33;;;;;18.32;100.00;100600.81;5035870;28;46521;-73
2022/09/15 04:54:30;;;;;;;;;19.33;17.33;;;;;18.26;100.00;100600.03;5034655;28;65033;-74
2022/09/15 04:56:56;;;;;;;;;18.33;17.00;;;;;18.17;100.00;100593.16;5034496;28;45591;-74
2022/09/15 04:59:22;;;;;;;;;20.00;18.33;;;;;18.15;100.00;100600.31;5030975;28;45363;-74
2022/09/15 05:01:47;;;;;;;;;18.33;16.67;;;;;18.18;100.00;100615.41;5028214;28;46450;-74
2022/09/15 05:04:13;;;;;;;;;20.67;19.67;;;;;18.16;100.00;100617.22;5037115;28;45546;-73
2022/09/15 05:06:38;;;;;;;;;19.33;19.00;;;;;18.14;100.00;100632.41;5036795;28;45783;-74
2022/09/15 05:09:05;;;;;;;;;22.33;21.33;;;;;18.14;100.00;100632.41;5036826;28;45403;-73
2022/09/15 05:11:31;;;;;;;;;19.67;16.67;;;;;18.14;100.00;100632.41;5036527;28;46326;-74
2022/09/15 05:13:57;;;;;;;;;18.33;16.67;;;;;18.11;100.00;100627.13;5030567;28;45142;-75
2022/09/15 05:16:25;;;;;;;;;22.00;19.00;;;;;18.05;100.00;100634.38;5037378;28;45364;-73
2022/09/15 05:18:52;;;;;;;;;22.33;18.67;;;;;18.00;100.00;100635.41;5030587;28;45526;-73
2022/09/15 05:21:19;;;;;;;;;21.00;18.67;;;;;17.92;100.00;100640.91;5035659;28;45636;-72
2022/09/15 05:23:45;;;;;;;;;19.33;18.33;;;;;17.84;100.00;100644.66;5035441;28;45504;-73
2022/09/15 05:26:12;;;;;;;;;22.33;18.33;;;;;17.75;100.00;100641.28;5027627;28;45571;-73
2022/09/15 05:28:38;;;;;;;;;25.67;23.33;;;;;17.69;100.00;100641.41;5036071;28;45928;-73
2022/09/15 05:31:12;;;;;;;;;24.33;22.00;;;;;17.65;100.00;100653.06;5035250;28;63749;-73
2022/09/15 05:33:37;;;;;;;;;23.00;22.33;;;;;17.59;100.00;100653.19;5016933;28;46007;-73
2022/09/15 05:36:04;;;;;;;;;21.67;20.33;;;;;17.54;100.00;100657.75;5031504;28;63446;-72
2022/09/15 05:38:30;;;;;;;;;23.00;20.00;;;;;17.50;100.00;100654.25;5030844;28;45619;-73
2022/09/15 05:41:26;;;;;;;;;26.67;26.67;;;;;17.45;100.00;100658.78;5033443;28;45459;-73
2022/09/15 05:43:53;;;;;;;;;24.33;24.00;;;;;17.37;100.00;100652.75;5010973;28;45653;-73
2022/09/15 05:46:19;;;;;;;;;27.67;23.67;;;;;17.31;100.00;100659.97;5016229;28;45552;-73
2022/09/15 05:48:45;;;;;;;;;26.00;23.00;;;;;17.27;100.00;100657.38;5033178;28;46457;-73
2022/09/15 05:51:10;;;;;;;;;28.67;25.67;;;;;17.28;100.00;100666.25;5015252;28;47560;-73
2022/09/15 05:53:36;;;;;;;;;32.33;26.67;;;;;17.24;100.00;100667.22;5012711;28;45500;-73
2022/09/15 05:56:04;;;;;;;;;29.67;28.00;;;;;17.24;100.00;100664.53;5026865;28;45507;-74
2022/09/15 05:58:30;;;;;;;;;29.67;28.33;;;;;17.21;100.00;100675.31;5026086;28;45783;-73
2022/09/15 06:00:56;;;;;;;;;29.33;29.33;;;;;17.19;100.00;100674.44;5026739;28;47345;-74
2022/09/15 06:03:22;;;;;;;;;33.67;30.33;;;;;17.18;100.00;100673.56;5032355;28;45491;-75
2022/09/15 06:05:48;;;;;;;;;28.33;25.67;;;;;17.16;100.00;100685.19;5035636;28;45509;-71
2022/09/15 06:08:14;;;;;;;;;32.67;29.33;;;;;17.14;100.00;100673.63;5035900;28;45561;-73
2022/09/15 06:10:39;;;;;;;;;34.67;27.33;;;;;17.09;100.00;100678.16;5034870;28;45710;-72
2022/09/15 06:13:05;;;;;;;;;32.33;28.33;;;;;17.10;100.00;100678.16;5034126;28;64178;-75
2022/09/15 06:15:31;;;;;;;;;30.67;27.67;;;;;17.13;100.00;100686.09;5033393;28;45467;-73
2022/09/15 06:17:56;;;;;;;;;35.00;30.33;;;;;17.07;100.00;100680.00;5027369;28;45594;-72
2022/09/15 06:20:22;;;;;;;;;31.33;30.00;;;;;17.11;100.00;100695.94;5030570;28;46402;-73
2022/09/15 06:33:24;;;;;;;;;34.00;30.00;;;;;17.21;100.00;100712.66;5032179;28;45526;-73
2022/09/15 09:03:10;;;;;;;;;8.33;8.33;;;;;21.03;100.00;100833.41;5034578;28;46181;-73
2022/09/15 09:41:13;;;;;;;;;10.00;8.00;;;;;21.45;100.00;100826.66;5022047;28;46566;-75
2022/09/15 09:43:41;;;;;;;;;6.00;6.00;;;;;21.40;100.00;100825.94;5014557;28;46564;-73
2022/09/15 09:46:15;;;;;;;;;7.00;7.00;;;;;21.35;100.00;100827.00;5005409;28;46543;-74
2022/09/15 09:48:48;;;;;;;;;5.00;5.00;;;;;21.32;100.00;100827.13;5012203;28;46893;-73
2022/09/15 09:51:33;;;;;;;;;6.67;5.00;;;;;21.31;100.00;100828.94;5012634;28;45689;-74
2022/09/15 09:54:15;;;;;;;;;4.67;4.67;;;;;21.29;100.00;100838.81;5012221;28;45440;-74
2022/09/15 09:56:41;;;;;;;;;5.33;4.67;;;;;21.30;100.00;100834.34;5010318;28;45491;-74
2022/09/15 09:59:34;;;;;;;;;6.33;4.00;;;;;21.32;100.00;100835.19;5013783;28;46731;-76
2022/09/15 10:02:17;;;;;;;;;6.00;5.00;;;;;21.31;100.00;100837.00;5010991;28;45459;-74
2022/09/15 10:04:54;;;;;;;;;4.33;4.00;;;;;21.32;100.00;100845.94;5015294;28;45432;-75
2022/09/15 10:07:25;;;;;;;;;3.00;3.00;;;;;21.31;100.00;100838.81;5016004;28;45534;-75
2022/09/15 10:09:53;;;;;;;;;6.00;6.00;;;;;21.31;100.00;100834.31;5015503;28;46638;-74
2022/09/15 10:12:28;;;;;;;;;4.33;4.00;;;;;21.30;100.00;100832.53;4998791;28;45491;-74
2022/09/15 10:14:55;;;;;;;;;4.00;4.00;;;;;21.31;100.00;100830.75;5014387;28;45475;-74
2022/09/15 10:19:56;;;;;;;;;3.67;3.33;;;;;21.42;100.00;100831.28;5022826;28;45875;-73
2022/09/15 10:22:36;;;;;;;;;5.67;3.33;;;;;21.46;100.00;100824.84;5024742;28;45484;-74
2022/09/15 10:25:21;;;;;;;;;5.00;3.00;;;;;21.54;100.00;100827.28;5012177;28;45517;-75
2022/09/15 10:28:13;;;;;;;;;3.00;3.00;;;;;21.64;100.00;100828.72;5021794;28;45309;-73
2022/09/15 10:30:58;;;;;;;;;3.00;3.00;;;;;21.73;100.00;100828.38;5030556;28;45663;-74
2022/09/15 10:33:33;;;;;;;;;3.00;3.00;;;;;21.82;100.00;100828.06;5020219;28;45415;-73
2022/09/15 10:36:24;;;;;;;;;5.67;4.00;;;;;21.84;100.00;100820.84;5019034;28;45876;-73
2022/09/15 10:39:04;;;;;;;;;2.67;2.67;;;;;21.90;100.00;100826.00;5012641;28;46364;-72
2022/09/15 10:41:33;;;;;;;;;4.00;4.00;;;;;22.03;100.00;100828.22;5024738;28;46340;-73
2022/09/15 10:44:26;;;;;;;;;3.00;3.00;;;;;22.15;100.00;100817.91;5007922;28;45531;-73
2022/09/15 10:47:23;;;;;;;;;4.33;2.67;;;;;22.42;100.00;100828.56;5026187;28;45522;-73
2022/09/15 10:49:58;;;;;;;;;2.00;2.00;;;;;22.56;100.00;100831.63;4996014;28;45465;-73
2022/09/15 10:53:04;;;;;;;;;4.33;4.33;;;;;22.62;100.00;100827.81;5016639;28;46511;-73
2022/09/15 10:56:11;;;;;;;;;3.00;3.00;;;;;22.72;100.00;100831.91;5004962;28;45382;-74
2022/09/15 10:58:36;;;;;;;;;4.00;2.33;;;;;22.82;100.00;100833.31;5032009;28;45388;-72
2022/09/15 11:01:17;;;;;;;;;3.00;3.00;;;;;22.97;100.00;100832.72;5027374;28;45485;-74
2022/09/15 11:03:49;;;;;;;;;3.00;3.00;;;;;23.08;100.00;100828.72;5028884;28;46227;-72
2022/09/15 11:06:26;;;;;;;;;5.00;4.00;;;;;23.14;100.00;100823.06;5035225;28;45186;-74
2022/09/15 11:09:22;;;;;;;;;4.67;4.00;;;;;23.16;100.00;100818.50;5022672;28;45540;-73
2022/09/15 11:12:15;;;;;;;;;3.00;3.00;;;;;23.19;100.00;100813.88;5007071;28;45593;-73
2022/09/15 11:14:52;;;;;;;;;4.00;4.00;;;;;23.23;100.00;100820.88;5027947;28;46559;-73
2022/09/15 11:17:27;;;;;;;;;6.33;3.00;;;;;23.22;100.00;100820.94;5030437;28;45419;-73
2022/09/15 11:20:14;;;;;;;;;5.00;4.00;;;;;23.19;100.00;100808.47;5018965;28;45463;-72
2022/09/15 11:23:04;;;;;;;;;4.00;4.00;;;;;23.20;100.00;100806.66;5022729;28;45513;-73
2022/09/15 11:25:39;;;;;;;;;5.00;4.00;;;;;23.21;100.00;100801.19;4985014;28;46670;-72
2022/09/15 11:28:32;;;;;;;;;5.00;3.33;;;;;23.12;100.00;100803.41;5001318;28;45452;-73
2022/09/15 11:31:04;;;;;;;;;4.00;4.00;;;;;23.04;100.00;100806.41;5016458;28;45487;-73
2022/09/15 11:33:49;;;;;;;;;6.00;4.33;;;;;22.99;100.00;100805.72;5017136;28;45569;-73
2022/09/15 11:36:18;;;;;;;;;6.33;4.00;;;;;22.99;100.00;100811.09;5020582;28;47221;-73
2022/09/15 11:39:02;;;;;;;;;3.67;3.67;;;;;23.13;100.00;100799.78;5029498;28;45440;-74
2022/09/15 11:41:33;;;;;;;;;5.00;4.00;;;;;23.46;100.00;100797.47;5026965;28;45321;-73
2022/09/15 11:44:06;;;;;;;;;3.33;3.33;;;;;23.78;100.00;100796.97;5028694;28;45396;-73
2022/09/15 11:47:06;;;;;;;;;4.67;4.67;;;;;24.14;100.00;100792.69;5010311;28;47332;-73
2022/09/15 11:49:46;;;;;;;;;4.00;4.00;;;;;24.36;100.00;100792.63;5023354;28;45601;-74
2022/09/15 11:52:42;;;;;;;;;4.00;4.00;;;;;24.46;100.00;100799.34;5024329;28;45450;-73
2022/09/15 11:55:13;;;;;;;;;3.00;3.00;;;;;24.52;100.00;100794.50;5030628;28;45471;-73
2022/09/15 11:57:47;;;;;;;;;4.67;4.67;;;;;24.54;100.00;100799.81;5027780;28;46440;-73
2022/09/15 12:00:14;;;;;;;;;3.00;3.00;;;;;24.47;100.00;100804.66;5027312;28;45386;-73
2022/09/15 12:03:00;;;;;;;;;4.33;4.33;;;;;24.42;100.00;100804.00;5029502;28;45509;-75
2022/09/15 12:05:34;;;;;;;;;3.00;3.00;;;;;24.46;100.00;100788.53;5033575;28;45671;-74
2022/09/15 12:08:20;;;;;;;;;3.00;3.00;;;;;24.68;100.00;100791.09;5034712;28;46565;-75
2022/09/15 12:10:51;;;;;;;;;4.00;4.00;;;;;24.76;99.39;100788.88;5027445;28;45359;-74
2022/09/15 12:13:22;;;;;;;;;5.33;4.00;;;;;24.77;97.42;100788.81;5011395;28;45645;-74
2022/09/15 12:15:49;;;;;;;;;4.67;3.00;;;;;24.76;98.67;100791.56;5026798;28;45539;-74
2022/09/15 12:18:24;;;;;;;;;4.67;3.00;;;;;24.79;96.97;100786.03;5010643;28;46092;-74
2022/09/15 12:21:01;;;;;;;;;5.00;3.67;;;;;24.84;99.45;100783.97;5014118;28;45487;-74
2022/09/15 12:23:58;;;;;;;;;4.00;4.00;;;;;24.91;97.06;100787.25;5031748;28;45618;-73
2022/09/15 12:26:25;;;;;;;;;5.00;5.00;;;;;24.88;96.17;100782.03;5023416;28;45539;-75
2022/09/15 12:29:03;;;;;;;;;2.33;2.33;;;;;24.93;95.44;100786.25;5033881;28;46369;-75
2022/09/15 12:31:30;;;;;;;;;5.67;5.67;;;;;25.04;94.54;100781.19;5028557;28;45613;-73
2022/09/15 12:34:02;;;;;;;;;4.00;4.00;;;;;25.07;94.81;100783.75;5026393;28;45466;-75
2022/09/15 12:36:37;;;;;;;;;4.67;4.00;;;;;25.07;95.29;100783.75;5024780;28;46040;-73
2022/09/15 12:39:31;;;;;;;;;6.67;5.00;;;;;25.06;93.29;100787.41;5030309;28;46289;-74
2022/09/15 12:42:00;;;;;;;;;7.67;4.67;;;;;24.99;93.43;100780.53;5010667;28;45407;-73
2022/09/15 12:44:33;;;;;;;;;4.67;4.33;;;;;24.90;93.62;100783.69;5025842;28;45953;-73
2022/09/15 12:46:59;;;;;;;;;4.33;4.00;;;;;24.99;95.17;100780.53;5019778;28;45384;-75
2022/09/15 12:49:30;;;;;;;;;5.67;5.67;;;;;25.57;96.05;100774.03;5023151;28;45748;-74
2022/09/15 12:51:57;;;;;;;;;4.00;4.00;;;;;26.53;94.81;100778.81;5020282;28;45408;-74
2022/09/15 12:54:27;;;;;;;;;6.33;5.33;;;;;27.62;86.70;100776.03;5009602;28;45331;-74
2022/09/15 12:56:53;;;;;;;;;7.33;5.67;;;;;28.23;86.52;100782.22;5026996;28;45693;-73
2022/09/15 12:59:24;;;;;;;;;5.33;5.33;;;;;28.65;85.09;100779.47;5010169;28;63922;-75
2022/09/15 13:01:49;;;;;;;;;6.00;5.00;;;;;28.94;83.02;100774.03;5004082;28;45481;-74
2022/09/15 13:04:39;;;;;;;;;6.33;5.00;;;;;29.26;81.48;100768.25;5027437;28;45656;-76
2022/09/15 13:07:14;;;;;;;;;7.00;6.00;;;;;29.95;75.84;100776.13;5027355;28;46097;-74
2022/09/15 13:09:44;;;;;;;;;5.67;4.67;;;;;30.50;75.89;100772.16;5033758;28;45686;-76
2022/09/15 13:12:13;;;;;;;;;6.00;6.00;;;;;30.69;72.62;100770.81;5024671;28;45486;-74
2022/09/15 13:14:43;;;;;;;;;7.67;7.00;;;;;30.45;70.61;100777.06;5032459;28;45225;-73
2022/09/15 13:17:15;;;;;;;;;6.00;6.00;;;;;30.32;70.18;100769.94;5024444;28;45466;-75
2022/09/15 13:19:45;;;;;;;;;5.00;5.00;;;;;29.76;68.89;100767.50;5016549;28;46411;-76
2022/09/15 13:22:10;;;;;;;;;8.00;7.00;;;;;29.45;68.56;100766.88;5034413;28;45471;-74
2022/09/15 13:24:47;;;;;;;;;6.00;6.00;;;;;28.67;69.79;100760.38;5034804;28;45470;-74
2022/09/15 13:27:16;;;;;;;;;6.33;5.00;;;;;27.93;70.45;100765.06;5034181;28;45671;-75
2022/09/15 13:29:58;;;;;;;;;12.67;9.00;;;;;27.25;71.10;100774.66;5013477;28;46491;-74
2022/09/15 13:32:54;;;;;;;;;12.33;7.67;;;;;26.66;73.31;100771.72;5018105;28;45618;-73
2022/09/15 13:35:41;;;;;;;;;8.00;8.00;;;;;28.12;74.55;100772.91;5010214;28;45502;-75
2022/09/15 13:38:14;;;;;;;;;7.67;7.67;;;;;29.91;67.72;100762.84;5022105;28;45610;-75
2022/09/15 13:40:53;;;;;;;;;10.33;8.67;;;;;31.87;63.45;100761.84;5025409;28;46608;-73
2022/09/15 13:43:33;;;;;;;;;9.33;8.33;;;;;33.43;61.37;100748.97;5029256;28;45512;-74
2022/09/15 13:46:17;;;;;;;;;11.67;10.00;;;;;33.17;55.79;100760.25;5023443;28;45441;-71
2022/09/15 13:49:20;;;;;;;;;10.67;10.67;;;;;31.94;56.96;100753.03;5025779;28;45534;-71
2022/09/15 13:51:56;;;;;;;;;14.00;11.00;;;;;32.99;56.60;100759.09;5032269;28;47717;-70
2022/09/15 13:54:21;;;;;;;;;11.00;11.00;;;;;34.08;52.84;100753.28;5021476;28;45859;-70
2022/09/15 13:56:47;;;;;;;;;10.67;10.67;;;;;35.01;49.08;100757.69;5029861;28;68451;-71
2022/09/15 13:59:20;;;;;;;;;9.00;7.33;;;;;34.20;47.54;100759.53;5026461;28;45331;-71
2022/09/15 14:01:45;;;;;;;;;10.00;10.00;;;;;33.37;49.30;100766.75;5027445;28;46718;-72
2022/09/15 14:04:23;;;;;;;;;12.00;9.67;;;;;33.52;48.23;100762.75;5021905;28;45429;-71
2022/09/15 14:06:51;;;;;;;;;10.67;9.00;;;;;32.77;49.11;100757.25;5030485;28;45575;-72
2022/09/15 14:09:16;;;;;;;;;11.00;10.00;;;;;31.83;50.51;100754.88;5030892;28;45513;-72
2022/09/15 14:11:42;;;;;;;;;13.67;13.67;;;;;30.97;52.50;100764.19;5024616;28;47203;-71
2022/09/15 14:14:26;;;;;;;;;13.33;10.00;;;;;30.23;52.81;100753.25;5002039;28;45609;-71
2022/09/15 14:16:52;;;;;;;;;12.00;12.00;;;;;29.60;52.99;100748.66;5023037;28;45486;-71
2022/09/15 14:19:34;;;;;;;;;11.00;10.33;;;;;28.99;54.41;100750.13;5028721;28;45666;-71
2022/09/15 14:22:19;;;;;;;;;13.00;12.00;;;;;28.41;54.05;100749.38;5028708;28;46585;-70
2022/09/15 14:24:44;;;;;;;;;11.00;11.00;;;;;28.03;56.24;100748.22;5030098;28;45488;-71
2022/09/15 14:27:10;;;;;;;;;11.00;10.00;;;;;27.81;56.23;100737.81;5024693;28;45456;-73
2022/09/15 14:29:40;;;;;;;;;10.67;10.67;;;;;27.60;56.55;100745.41;5019835;28;45518;-74
2022/09/15 14:32:07;;;;;;;;;13.33;11.33;;;;;27.35;58.54;100754.16;4998740;28;46493;-73
2022/09/15 14:34:35;;;;;;;;;12.67;10.00;;;;;27.18;59.45;100749.75;5006802;28;45539;-75
2022/09/15 14:37:05;;;;;;;;;11.00;9.33;;;;;27.00;60.95;100735.41;5010156;28;45444;-73
2022/09/15 14:39:32;;;;;;;;;13.67;12.00;;;;;26.90;60.44;100755.91;5023707;28;45523;-73
2022/09/15 14:41:57;;;;;;;;;11.33;11.33;;;;;26.75;62.14;100754.94;5016093;28;46497;-74
2022/09/15 14:44:34;;;;;;;;;12.67;8.33;;;;;26.66;62.71;100757.31;5021675;28;63762;-73
2022/09/15 14:46:59;;;;;;;;;15.00;13.33;;;;;26.53;63.06;100758.00;5011864;28;45546;-73
2022/09/15 14:49:25;;;;;;;;;12.33;10.33;;;;;26.49;63.67;100756.44;5026255;28;56543;-74
2022/09/15 14:51:52;;;;;;;;;13.67;13.67;;;;;26.45;63.60;100751.25;5025450;28;46263;-73
2022/09/15 14:54:22;;;;;;;;;15.67;12.67;;;;;26.35;63.29;100764.41;5012817;28;45384;-73